sensor_id;sensor_type;location;lat;lon;timestamp;P1;durP1;ratioP1;P2;durP2;ratioP2
8889;SDS011;4481;43.406;24.454;2023-02-28T00:00:05;13.00;;;9.03;;
8889;SDS011;4481;43.406;24.454;2023-02-28T00:02:35;15.03;;;11.00;;
8889;SDS011;4481;43.406;24.454;2023-02-28T00:05:01;16.43;;;11.67;;
8889;SDS011;4481;43.406;24.454;2023-02-28T00:07:29;12.73;;;10.43;;
8889;SDS011;4481;43.406;24.454;2023-02-28T00:09:55;15.17;;;10.30;;
8889;SDS011;4481;43.406;24.454;2023-02-28T00:12:21;15.47;;;10.53;;
8889;SDS011;4481;43.406;24.454;2023-02-28T00:14:48;13.40;;;9.87;;
8889;SDS011;4481;43.406;24.454;2023-02-28T00:17:14;11.47;;;9.70;;
8889;SDS011;4481;43.406;24.454;2023-02-28T00:19:41;12.53;;;9.63;;
8889;SDS011;4481;43.406;24.454;2023-02-28T00:22:07;11.73;;;9.37;;
8889;SDS011;4481;43.406;24.454;2023-02-28T00:24:34;14.90;;;10.67;;
8889;SDS011;4481;43.406;24.454;2023-02-28T00:27:00;14.07;;;10.77;;
8889;SDS011;4481;43.406;24.454;2023-02-28T00:29:26;12.17;;;9.60;;
8889;SDS011;4481;43.406;24.454;2023-02-28T00:31:52;13.63;;;9.73;;
8889;SDS011;4481;43.406;24.454;2023-02-28T00:34:18;12.73;;;9.93;;
8889;SDS011;4481;43.406;24.454;2023-02-28T00:36:45;15.73;;;10.20;;
8889;SDS011;4481;43.406;24.454;2023-02-28T00:39:14;14.17;;;9.97;;
8889;SDS011;4481;43.406;24.454;2023-02-28T00:41:41;13.27;;;9.70;;
8889;SDS011;4481;43.406;24.454;2023-02-28T00:44:07;13.40;;;9.73;;
8889;SDS011;4481;43.406;24.454;2023-02-28T00:46:34;12.40;;;9.87;;
8889;SDS011;4481;43.406;24.454;2023-02-28T00:49:00;14.23;;;10.67;;
8889;SDS011;4481;43.406;24.454;2023-02-28T00:51:26;14.27;;;11.20;;
8889;SDS011;4481;43.406;24.454;2023-02-28T00:53:52;17.60;;;10.83;;
8889;SDS011;4481;43.406;24.454;2023-02-28T00:56:19;14.27;;;10.40;;
8889;SDS011;4481;43.406;24.454;2023-02-28T00:58:46;17.03;;;12.67;;
8889;SDS011;4481;43.406;24.454;2023-02-28T01:01:12;15.80;;;11.77;;
8889;SDS011;4481;43.406;24.454;2023-02-28T01:03:38;16.13;;;12.17;;
8889;SDS011;4481;43.406;24.454;2023-02-28T01:06:04;15.27;;;11.43;;
8889;SDS011;4481;43.406;24.454;2023-02-28T01:08:31;17.93;;;13.57;;
8889;SDS011;4481;43.406;24.454;2023-02-28T01:10:57;18.30;;;13.30;;
8889;SDS011;4481;43.406;24.454;2023-02-28T01:13:23;19.83;;;13.47;;
8889;SDS011;4481;43.406;24.454;2023-02-28T01:15:51;16.57;;;13.77;;
8889;SDS011;4481;43.406;24.454;2023-02-28T01:18:20;19.57;;;14.03;;
8889;SDS011;4481;43.406;24.454;2023-02-28T01:20:47;16.87;;;14.43;;
8889;SDS011;4481;43.406;24.454;2023-02-28T01:23:13;19.20;;;14.77;;
8889;SDS011;4481;43.406;24.454;2023-02-28T01:25:39;20.03;;;15.27;;
8889;SDS011;4481;43.406;24.454;2023-02-28T01:28:05;22.07;;;16.83;;
8889;SDS011;4481;43.406;24.454;2023-02-28T01:30:32;24.10;;;17.23;;
8889;SDS011;4481;43.406;24.454;2023-02-28T01:32:59;24.80;;;19.13;;
8889;SDS011;4481;43.406;24.454;2023-02-28T01:35:25;26.87;;;17.00;;
8889;SDS011;4481;43.406;24.454;2023-02-28T01:37:51;25.70;;;18.10;;
8889;SDS011;4481;43.406;24.454;2023-02-28T01:40:17;27.00;;;20.43;;
8889;SDS011;4481;43.406;24.454;2023-02-28T01:42:44;24.30;;;18.90;;
8889;SDS011;4481;43.406;24.454;2023-02-28T01:45:16;25.57;;;19.47;;
8889;SDS011;4481;43.406;24.454;2023-02-28T01:47:47;28.87;;;18.53;;
8889;SDS011;4481;43.406;24.454;2023-02-28T01:50:16;31.67;;;22.03;;
8889;SDS011;4481;43.406;24.454;2023-02-28T01:52:44;31.73;;;22.13;;
8889;SDS011;4481;43.406;24.454;2023-02-28T01:55:12;34.40;;;22.30;;
8889;SDS011;4481;43.406;24.454;2023-02-28T01:57:41;30.53;;;20.43;;
8889;SDS011;4481;43.406;24.454;2023-02-28T02:00:11;33.27;;;21.93;;
8889;SDS011;4481;43.406;24.454;2023-02-28T02:02:40;31.60;;;22.10;;
8889;SDS011;4481;43.406;24.454;2023-02-28T02:05:09;31.17;;;21.07;;
8889;SDS011;4481;43.406;24.454;2023-02-28T02:07:38;30.10;;;21.83;;
8889;SDS011;4481;43.406;24.454;2023-02-28T02:10:11;31.57;;;20.73;;
8889;SDS011;4481;43.406;24.454;2023-02-28T02:13:00;31.80;;;23.57;;
8889;SDS011;4481;43.406;24.454;2023-02-28T02:15:49;36.10;;;24.27;;
8889;SDS011;4481;43.406;24.454;2023-02-28T02:18:26;31.20;;;22.83;;
8889;SDS011;4481;43.406;24.454;2023-02-28T02:21:09;32.53;;;21.63;;
8889;SDS011;4481;43.406;24.454;2023-02-28T02:24:15;38.47;;;22.57;;
8889;SDS011;4481;43.406;24.454;2023-02-28T02:27:01;31.03;;;21.30;;
8889;SDS011;4481;43.406;24.454;2023-02-28T02:35:30;27.67;;;20.27;;
8889;SDS011;4481;43.406;24.454;2023-02-28T02:38:04;27.77;;;19.43;;
8889;SDS011;4481;43.406;24.454;2023-02-28T02:40:35;25.47;;;18.40;;
8889;SDS011;4481;43.406;24.454;2023-02-28T02:43:09;22.87;;;18.10;;
8889;SDS011;4481;43.406;24.454;2023-02-28T02:45:42;21.77;;;16.33;;
8889;SDS011;4481;43.406;24.454;2023-02-28T02:48:15;21.60;;;15.73;;
8889;SDS011;4481;43.406;24.454;2023-02-28T02:50:46;24.60;;;15.93;;
8889;SDS011;4481;43.406;24.454;2023-02-28T02:53:17;25.00;;;18.77;;
8889;SDS011;4481;43.406;24.454;2023-02-28T02:55:47;26.07;;;16.37;;
8889;SDS011;4481;43.406;24.454;2023-02-28T02:58:20;19.50;;;14.00;;
8889;SDS011;4481;43.406;24.454;2023-02-28T03:00:50;17.67;;;13.53;;
8889;SDS011;4481;43.406;24.454;2023-02-28T03:03:19;19.37;;;13.97;;
8889;SDS011;4481;43.406;24.454;2023-02-28T03:05:55;17.20;;;12.87;;
8889;SDS011;4481;43.406;24.454;2023-02-28T03:08:22;14.63;;;12.43;;
8889;SDS011;4481;43.406;24.454;2023-02-28T03:10:49;14.23;;;11.80;;
8889;SDS011;4481;43.406;24.454;2023-02-28T03:13:25;16.73;;;13.60;;
8889;SDS011;4481;43.406;24.454;2023-02-28T03:16:18;15.67;;;13.37;;
8889;SDS011;4481;43.406;24.454;2023-02-28T03:18:54;14.60;;;12.83;;
8889;SDS011;4481;43.406;24.454;2023-02-28T03:21:30;19.33;;;14.00;;
8889;SDS011;4481;43.406;24.454;2023-02-28T03:24:03;15.53;;;12.80;;
8889;SDS011;4481;43.406;24.454;2023-02-28T03:26:31;18.27;;;15.00;;
8889;SDS011;4481;43.406;24.454;2023-02-28T03:29:03;18.57;;;16.57;;
8889;SDS011;4481;43.406;24.454;2023-02-28T03:31:33;18.30;;;15.30;;
8889;SDS011;4481;43.406;24.454;2023-02-28T03:34:05;20.47;;;15.03;;
8889;SDS011;4481;43.406;24.454;2023-02-28T03:36:37;19.50;;;15.40;;
8889;SDS011;4481;43.406;24.454;2023-02-28T03:39:09;20.30;;;14.93;;
8889;SDS011;4481;43.406;24.454;2023-02-28T03:41:40;15.10;;;13.47;;
8889;SDS011;4481;43.406;24.454;2023-02-28T03:44:14;19.17;;;15.10;;
8889;SDS011;4481;43.406;24.454;2023-02-28T03:46:44;23.43;;;18.03;;
8889;SDS011;4481;43.406;24.454;2023-02-28T03:49:15;25.13;;;16.73;;
8889;SDS011;4481;43.406;24.454;2023-02-28T03:51:45;22.47;;;19.07;;
8889;SDS011;4481;43.406;24.454;2023-02-28T03:54:15;21.03;;;16.80;;
8889;SDS011;4481;43.406;24.454;2023-02-28T03:56:46;22.87;;;18.53;;
8889;SDS011;4481;43.406;24.454;2023-02-28T03:59:19;27.20;;;21.27;;
8889;SDS011;4481;43.406;24.454;2023-02-28T04:01:50;25.20;;;21.93;;
8889;SDS011;4481;43.406;24.454;2023-02-28T04:04:17;25.50;;;19.97;;
8889;SDS011;4481;43.406;24.454;2023-02-28T04:06:43;31.47;;;22.87;;
8889;SDS011;4481;43.406;24.454;2023-02-28T04:09:13;25.17;;;18.47;;
8889;SDS011;4481;43.406;24.454;2023-02-28T04:11:40;23.23;;;18.93;;
8889;SDS011;4481;43.406;24.454;2023-02-28T04:14:08;21.03;;;17.20;;
8889;SDS011;4481;43.406;24.454;2023-02-28T04:16:36;22.80;;;17.63;;
8889;SDS011;4481;43.406;24.454;2023-02-28T04:19:03;21.57;;;16.60;;
8889;SDS011;4481;43.406;24.454;2023-02-28T04:21:31;20.77;;;15.63;;
8889;SDS011;4481;43.406;24.454;2023-02-28T04:23:59;24.53;;;16.07;;
8889;SDS011;4481;43.406;24.454;2023-02-28T04:26:27;19.40;;;15.83;;
8889;SDS011;4481;43.406;24.454;2023-02-28T04:28:55;21.40;;;16.67;;
8889;SDS011;4481;43.406;24.454;2023-02-28T04:31:21;20.97;;;14.97;;
8889;SDS011;4481;43.406;24.454;2023-02-28T04:33:47;18.33;;;14.50;;
8889;SDS011;4481;43.406;24.454;2023-02-28T04:36:13;17.23;;;14.57;;
8889;SDS011;4481;43.406;24.454;2023-02-28T04:38:39;16.27;;;14.03;;
8889;SDS011;4481;43.406;24.454;2023-02-28T04:41:06;17.53;;;14.80;;
8889;SDS011;4481;43.406;24.454;2023-02-28T04:43:33;19.63;;;15.60;;
8889;SDS011;4481;43.406;24.454;2023-02-28T04:46:00;23.33;;;16.03;;
8889;SDS011;4481;43.406;24.454;2023-02-28T04:48:28;20.53;;;17.17;;
8889;SDS011;4481;43.406;24.454;2023-02-28T04:50:59;19.57;;;14.80;;
8889;SDS011;4481;43.406;24.454;2023-02-28T04:53:27;21.93;;;14.70;;
8889;SDS011;4481;43.406;24.454;2023-02-28T04:55:54;15.57;;;12.50;;
8889;SDS011;4481;43.406;24.454;2023-02-28T04:58:21;16.90;;;12.80;;
8889;SDS011;4481;43.406;24.454;2023-02-28T05:00:48;14.67;;;13.07;;
8889;SDS011;4481;43.406;24.454;2023-02-28T05:03:14;13.90;;;12.30;;
8889;SDS011;4481;43.406;24.454;2023-02-28T05:05:40;17.80;;;14.50;;
8889;SDS011;4481;43.406;24.454;2023-02-28T05:08:06;18.00;;;13.23;;
8889;SDS011;4481;43.406;24.454;2023-02-28T05:10:32;14.63;;;12.57;;
8889;SDS011;4481;43.406;24.454;2023-02-28T05:12:59;13.20;;;11.60;;
8889;SDS011;4481;43.406;24.454;2023-02-28T05:15:26;14.33;;;11.73;;
8889;SDS011;4481;43.406;24.454;2023-02-28T05:17:52;13.87;;;12.37;;
8889;SDS011;4481;43.406;24.454;2023-02-28T05:20:18;18.87;;;14.00;;
8889;SDS011;4481;43.406;24.454;2023-02-28T05:22:46;15.73;;;13.20;;
8889;SDS011;4481;43.406;24.454;2023-02-28T05:25:13;20.50;;;14.03;;
8889;SDS011;4481;43.406;24.454;2023-02-28T05:27:41;17.33;;;12.93;;
8889;SDS011;4481;43.406;24.454;2023-02-28T05:30:08;19.97;;;13.90;;
8889;SDS011;4481;43.406;24.454;2023-02-28T05:32:36;23.07;;;20.43;;
8889;SDS011;4481;43.406;24.454;2023-02-28T05:35:03;18.03;;;15.43;;
8889;SDS011;4481;43.406;24.454;2023-02-28T05:37:29;20.20;;;14.63;;
8889;SDS011;4481;43.406;24.454;2023-02-28T05:39:55;23.70;;;15.50;;
8889;SDS011;4481;43.406;24.454;2023-02-28T05:42:21;23.83;;;15.10;;
8889;SDS011;4481;43.406;24.454;2023-02-28T05:44:48;20.90;;;16.43;;
8889;SDS011;4481;43.406;24.454;2023-02-28T05:47:14;22.47;;;16.03;;
8889;SDS011;4481;43.406;24.454;2023-02-28T05:49:41;18.20;;;14.37;;
8889;SDS011;4481;43.406;24.454;2023-02-28T05:52:07;20.73;;;15.10;;
8889;SDS011;4481;43.406;24.454;2023-02-28T05:54:34;25.90;;;19.07;;
8889;SDS011;4481;43.406;24.454;2023-02-28T05:57:00;29.27;;;20.07;;
8889;SDS011;4481;43.406;24.454;2023-02-28T05:59:26;22.37;;;16.93;;
8889;SDS011;4481;43.406;24.454;2023-02-28T06:01:52;26.43;;;17.40;;
8889;SDS011;4481;43.406;24.454;2023-02-28T06:04:19;26.53;;;19.40;;
8889;SDS011;4481;43.406;24.454;2023-02-28T06:06:47;22.83;;;18.87;;
8889;SDS011;4481;43.406;24.454;2023-02-28T06:09:13;23.30;;;17.33;;
8889;SDS011;4481;43.406;24.454;2023-02-28T06:11:40;24.63;;;17.57;;
8889;SDS011;4481;43.406;24.454;2023-02-28T06:14:06;21.70;;;16.07;;
8889;SDS011;4481;43.406;24.454;2023-02-28T06:16:34;26.53;;;17.10;;
8889;SDS011;4481;43.406;24.454;2023-02-28T06:19:01;20.90;;;16.60;;
8889;SDS011;4481;43.406;24.454;2023-02-28T06:21:29;21.47;;;16.43;;
8889;SDS011;4481;43.406;24.454;2023-02-28T06:23:56;19.57;;;16.47;;
8889;SDS011;4481;43.406;24.454;2023-02-28T06:26:23;19.90;;;16.13;;
8889;SDS011;4481;43.406;24.454;2023-02-28T06:28:50;16.93;;;14.20;;
8889;SDS011;4481;43.406;24.454;2023-02-28T06:31:17;23.47;;;17.80;;
8889;SDS011;4481;43.406;24.454;2023-02-28T06:33:44;22.10;;;17.60;;
8889;SDS011;4481;43.406;24.454;2023-02-28T06:36:12;24.67;;;19.73;;
8889;SDS011;4481;43.406;24.454;2023-02-28T06:38:39;25.60;;;21.77;;
8889;SDS011;4481;43.406;24.454;2023-02-28T06:41:06;27.07;;;21.73;;
8889;SDS011;4481;43.406;24.454;2023-02-28T06:43:34;26.50;;;19.73;;
8889;SDS011;4481;43.406;24.454;2023-02-28T06:46:02;27.07;;;17.63;;
8889;SDS011;4481;43.406;24.454;2023-02-28T06:48:30;23.23;;;18.90;;
8889;SDS011;4481;43.406;24.454;2023-02-28T06:51:01;24.83;;;17.73;;
8889;SDS011;4481;43.406;24.454;2023-02-28T06:53:31;27.17;;;19.93;;
8889;SDS011;4481;43.406;24.454;2023-02-28T06:55:57;28.10;;;18.40;;
8889;SDS011;4481;43.406;24.454;2023-02-28T06:58:24;25.53;;;19.07;;
8889;SDS011;4481;43.406;24.454;2023-02-28T07:00:51;23.07;;;17.17;;
8889;SDS011;4481;43.406;24.454;2023-02-28T07:03:18;22.50;;;18.20;;
8889;SDS011;4481;43.406;24.454;2023-02-28T07:05:45;24.73;;;17.43;;
8889;SDS011;4481;43.406;24.454;2023-02-28T07:08:11;22.27;;;17.10;;
8889;SDS011;4481;43.406;24.454;2023-02-28T07:10:38;21.37;;;15.57;;
8889;SDS011;4481;43.406;24.454;2023-02-28T07:13:04;24.93;;;18.87;;
8889;SDS011;4481;43.406;24.454;2023-02-28T07:15:32;21.30;;;16.93;;
8889;SDS011;4481;43.406;24.454;2023-02-28T07:17:58;24.07;;;18.87;;
8889;SDS011;4481;43.406;24.454;2023-02-28T07:20:27;29.33;;;21.67;;
8889;SDS011;4481;43.406;24.454;2023-02-28T07:22:54;27.57;;;19.67;;
8889;SDS011;4481;43.406;24.454;2023-02-28T07:25:21;26.93;;;17.83;;
8889;SDS011;4481;43.406;24.454;2023-02-28T07:27:48;28.13;;;19.67;;
8889;SDS011;4481;43.406;24.454;2023-02-28T07:30:14;28.73;;;23.77;;
8889;SDS011;4481;43.406;24.454;2023-02-28T07:32:41;28.53;;;21.50;;
8889;SDS011;4481;43.406;24.454;2023-02-28T07:35:08;28.40;;;21.27;;
8889;SDS011;4481;43.406;24.454;2023-02-28T07:37:34;22.87;;;18.17;;
8889;SDS011;4481;43.406;24.454;2023-02-28T07:40:02;26.23;;;18.40;;
8889;SDS011;4481;43.406;24.454;2023-02-28T07:42:31;31.87;;;18.93;;
8889;SDS011;4481;43.406;24.454;2023-02-28T07:44:58;29.40;;;19.80;;
8889;SDS011;4481;43.406;24.454;2023-02-28T07:47:24;22.73;;;16.57;;
8889;SDS011;4481;43.406;24.454;2023-02-28T07:49:51;31.23;;;22.37;;
8889;SDS011;4481;43.406;24.454;2023-02-28T07:52:17;27.77;;;19.97;;
8889;SDS011;4481;43.406;24.454;2023-02-28T07:54:44;31.47;;;24.23;;
8889;SDS011;4481;43.406;24.454;2023-02-28T07:57:10;29.17;;;19.97;;
8889;SDS011;4481;43.406;24.454;2023-02-28T07:59:38;35.97;;;23.20;;
8889;SDS011;4481;43.406;24.454;2023-02-28T08:02:04;30.07;;;22.70;;
8889;SDS011;4481;43.406;24.454;2023-02-28T08:04:31;30.03;;;21.03;;
8889;SDS011;4481;43.406;24.454;2023-02-28T08:06:58;35.67;;;22.67;;
8889;SDS011;4481;43.406;24.454;2023-02-28T08:09:24;27.20;;;19.93;;
8889;SDS011;4481;43.406;24.454;2023-02-28T08:11:51;29.57;;;19.17;;
8889;SDS011;4481;43.406;24.454;2023-02-28T08:14:17;31.67;;;23.33;;
8889;SDS011;4481;43.406;24.454;2023-02-28T08:16:43;29.77;;;24.30;;
8889;SDS011;4481;43.406;24.454;2023-02-28T08:19:09;28.70;;;21.17;;
8889;SDS011;4481;43.406;24.454;2023-02-28T08:21:36;31.43;;;21.83;;
8889;SDS011;4481;43.406;24.454;2023-02-28T08:24:04;31.67;;;20.90;;
8889;SDS011;4481;43.406;24.454;2023-02-28T08:26:31;33.53;;;21.30;;
8889;SDS011;4481;43.406;24.454;2023-02-28T08:28:57;30.57;;;22.93;;
8889;SDS011;4481;43.406;24.454;2023-02-28T08:31:24;28.60;;;19.27;;
8889;SDS011;4481;43.406;24.454;2023-02-28T08:33:50;30.83;;;19.90;;
8889;SDS011;4481;43.406;24.454;2023-02-28T08:36:18;32.80;;;23.20;;
8889;SDS011;4481;43.406;24.454;2023-02-28T08:38:45;27.17;;;19.63;;
8889;SDS011;4481;43.406;24.454;2023-02-28T08:41:12;33.27;;;22.57;;
8889;SDS011;4481;43.406;24.454;2023-02-28T08:43:39;29.33;;;20.83;;
8889;SDS011;4481;43.406;24.454;2023-02-28T08:46:06;29.20;;;21.00;;
8889;SDS011;4481;43.406;24.454;2023-02-28T08:48:33;30.90;;;20.87;;
8889;SDS011;4481;43.406;24.454;2023-02-28T08:51:04;32.83;;;21.20;;
8889;SDS011;4481;43.406;24.454;2023-02-28T08:53:32;26.90;;;19.17;;
8889;SDS011;4481;43.406;24.454;2023-02-28T08:55:59;32.53;;;19.63;;
8889;SDS011;4481;43.406;24.454;2023-02-28T08:58:27;21.50;;;16.43;;
8889;SDS011;4481;43.406;24.454;2023-02-28T09:00:54;25.83;;;18.37;;
8889;SDS011;4481;43.406;24.454;2023-02-28T09:03:20;27.07;;;17.47;;
8889;SDS011;4481;43.406;24.454;2023-02-28T09:05:54;27.33;;;19.60;;
8889;SDS011;4481;43.406;24.454;2023-02-28T09:08:21;25.97;;;19.53;;
8889;SDS011;4481;43.406;24.454;2023-02-28T09:10:48;30.20;;;21.10;;
8889;SDS011;4481;43.406;24.454;2023-02-28T09:13:14;28.07;;;20.47;;
8889;SDS011;4481;43.406;24.454;2023-02-28T09:15:40;26.03;;;19.33;;
8889;SDS011;4481;43.406;24.454;2023-02-28T09:18:07;25.40;;;19.23;;
8889;SDS011;4481;43.406;24.454;2023-02-28T09:20:36;24.10;;;18.17;;
8889;SDS011;4481;43.406;24.454;2023-02-28T09:23:04;30.30;;;19.90;;
8889;SDS011;4481;43.406;24.454;2023-02-28T09:25:30;24.73;;;18.40;;
8889;SDS011;4481;43.406;24.454;2023-02-28T09:27:57;30.00;;;21.03;;
8889;SDS011;4481;43.406;24.454;2023-02-28T09:30:23;33.93;;;22.03;;
8889;SDS011;4481;43.406;24.454;2023-02-28T09:32:50;26.17;;;20.53;;
8889;SDS011;4481;43.406;24.454;2023-02-28T09:35:18;23.20;;;16.27;;
8889;SDS011;4481;43.406;24.454;2023-02-28T09:37:46;29.50;;;20.00;;
8889;SDS011;4481;43.406;24.454;2023-02-28T09:40:13;26.50;;;17.60;;
8889;SDS011;4481;43.406;24.454;2023-02-28T09:42:42;29.50;;;17.87;;
8889;SDS011;4481;43.406;24.454;2023-02-28T09:45:13;22.30;;;17.67;;
8889;SDS011;4481;43.406;24.454;2023-02-28T09:47:47;26.77;;;17.07;;
8889;SDS011;4481;43.406;24.454;2023-02-28T09:50:17;29.93;;;19.37;;
8889;SDS011;4481;43.406;24.454;2023-02-28T09:52:49;27.53;;;16.50;;
8889;SDS011;4481;43.406;24.454;2023-02-28T09:55:18;26.40;;;17.40;;
8889;SDS011;4481;43.406;24.454;2023-02-28T09:57:47;23.90;;;17.87;;
8889;SDS011;4481;43.406;24.454;2023-02-28T10:00:17;25.27;;;18.60;;
8889;SDS011;4481;43.406;24.454;2023-02-28T10:02:52;25.30;;;18.77;;
8889;SDS011;4481;43.406;24.454;2023-02-28T10:05:30;28.57;;;18.77;;
8889;SDS011;4481;43.406;24.454;2023-02-28T10:08:03;25.07;;;17.10;;
8889;SDS011;4481;43.406;24.454;2023-02-28T10:10:37;30.67;;;20.13;;
8889;SDS011;4481;43.406;24.454;2023-02-28T10:13:06;26.27;;;16.47;;
8889;SDS011;4481;43.406;24.454;2023-02-28T10:15:42;25.40;;;18.37;;
8889;SDS011;4481;43.406;24.454;2023-02-28T10:18:10;26.87;;;17.60;;
8889;SDS011;4481;43.406;24.454;2023-02-28T10:20:45;29.77;;;18.03;;
8889;SDS011;4481;43.406;24.454;2023-02-28T10:23:16;27.33;;;17.63;;
8889;SDS011;4481;43.406;24.454;2023-02-28T10:25:48;26.37;;;17.37;;
8889;SDS011;4481;43.406;24.454;2023-02-28T10:28:20;23.77;;;17.20;;
8889;SDS011;4481;43.406;24.454;2023-02-28T10:30:47;22.87;;;16.80;;
8889;SDS011;4481;43.406;24.454;2023-02-28T10:33:27;27.47;;;19.17;;
8889;SDS011;4481;43.406;24.454;2023-02-28T10:35:56;23.13;;;16.10;;
8889;SDS011;4481;43.406;24.454;2023-02-28T10:38:24;31.00;;;16.77;;
8889;SDS011;4481;43.406;24.454;2023-02-28T10:40:53;24.10;;;16.83;;
8889;SDS011;4481;43.406;24.454;2023-02-28T10:43:29;30.87;;;16.87;;
8889;SDS011;4481;43.406;24.454;2023-02-28T10:45:57;23.73;;;17.50;;
8889;SDS011;4481;43.406;24.454;2023-02-28T10:48:29;22.77;;;16.93;;
8889;SDS011;4481;43.406;24.454;2023-02-28T10:50:59;26.20;;;17.07;;
8889;SDS011;4481;43.406;24.454;2023-02-28T10:53:34;25.20;;;18.63;;
8889;SDS011;4481;43.406;24.454;2023-02-28T10:56:04;23.93;;;16.23;;
8889;SDS011;4481;43.406;24.454;2023-02-28T10:58:44;27.13;;;17.23;;
8889;SDS011;4481;43.406;24.454;2023-02-28T11:01:14;21.87;;;16.80;;
8889;SDS011;4481;43.406;24.454;2023-02-28T11:03:41;25.53;;;18.57;;
8889;SDS011;4481;43.406;24.454;2023-02-28T11:06:12;28.40;;;18.80;;
8889;SDS011;4481;43.406;24.454;2023-02-28T11:08:45;23.90;;;19.23;;
8889;SDS011;4481;43.406;24.454;2023-02-28T11:11:14;28.53;;;21.33;;
8889;SDS011;4481;43.406;24.454;2023-02-28T11:13:42;28.33;;;21.30;;
8889;SDS011;4481;43.406;24.454;2023-02-28T11:16:11;34.10;;;21.30;;
8889;SDS011;4481;43.406;24.454;2023-02-28T11:18:40;28.73;;;21.20;;
8889;SDS011;4481;43.406;24.454;2023-02-28T11:21:09;28.40;;;20.63;;
8889;SDS011;4481;43.406;24.454;2023-02-28T11:23:43;37.13;;;21.37;;
8889;SDS011;4481;43.406;24.454;2023-02-28T11:26:12;26.93;;;19.47;;
8889;SDS011;4481;43.406;24.454;2023-02-28T11:28:40;37.23;;;24.60;;
8889;SDS011;4481;43.406;24.454;2023-02-28T11:33:55;31.97;;;21.83;;
8889;SDS011;4481;43.406;24.454;2023-02-28T11:36:22;28.40;;;19.23;;
8889;SDS011;4481;43.406;24.454;2023-02-28T11:38:50;26.37;;;17.57;;
8889;SDS011;4481;43.406;24.454;2023-02-28T11:44:23;24.47;;;16.00;;
8889;SDS011;4481;43.406;24.454;2023-02-28T11:47:04;22.13;;;16.50;;
8889;SDS011;4481;43.406;24.454;2023-02-28T11:49:37;25.47;;;17.97;;
8889;SDS011;4481;43.406;24.454;2023-02-28T11:52:18;23.80;;;18.93;;
8889;SDS011;4481;43.406;24.454;2023-02-28T11:54:54;27.37;;;19.67;;
8889;SDS011;4481;43.406;24.454;2023-02-28T11:57:40;24.47;;;17.17;;
8889;SDS011;4481;43.406;24.454;2023-02-28T12:00:25;26.60;;;16.93;;
8889;SDS011;4481;43.406;24.454;2023-02-28T12:03:04;23.10;;;17.13;;
8889;SDS011;4481;43.406;24.454;2023-02-28T12:05:45;23.27;;;15.30;;
8889;SDS011;4481;43.406;24.454;2023-02-28T12:08:23;24.03;;;17.57;;
8889;SDS011;4481;43.406;24.454;2023-02-28T12:11:00;24.13;;;18.87;;
8889;SDS011;4481;43.406;24.454;2023-02-28T12:13:36;27.60;;;18.83;;
8889;SDS011;4481;43.406;24.454;2023-02-28T12:16:20;28.43;;;19.60;;
8889;SDS011;4481;43.406;24.454;2023-02-28T12:19:01;26.60;;;19.53;;
8889;SDS011;4481;43.406;24.454;2023-02-28T12:21:41;26.67;;;18.17;;
8889;SDS011;4481;43.406;24.454;2023-02-28T12:27:11;25.70;;;18.83;;
8889;SDS011;4481;43.406;24.454;2023-02-28T12:29:42;32.73;;;21.60;;
8889;SDS011;4481;43.406;24.454;2023-02-28T12:32:14;33.17;;;21.93;;
8889;SDS011;4481;43.406;24.454;2023-02-28T12:34:46;28.03;;;21.70;;
8889;SDS011;4481;43.406;24.454;2023-02-28T12:37:15;23.43;;;18.40;;
8889;SDS011;4481;43.406;24.454;2023-02-28T12:39:49;27.53;;;20.90;;
8889;SDS011;4481;43.406;24.454;2023-02-28T12:42:19;23.17;;;17.37;;
8889;SDS011;4481;43.406;24.454;2023-02-28T12:44:52;24.33;;;17.30;;
8889;SDS011;4481;43.406;24.454;2023-02-28T12:47:22;26.77;;;17.87;;
8889;SDS011;4481;43.406;24.454;2023-02-28T12:49:49;31.40;;;20.30;;
8889;SDS011;4481;43.406;24.454;2023-02-28T12:52:19;27.93;;;18.63;;
8889;SDS011;4481;43.406;24.454;2023-02-28T12:54:52;30.27;;;21.33;;
8889;SDS011;4481;43.406;24.454;2023-02-28T12:57:24;28.97;;;19.90;;
8889;SDS011;4481;43.406;24.454;2023-02-28T12:59:57;26.47;;;21.67;;
8889;SDS011;4481;43.406;24.454;2023-02-28T13:02:44;28.73;;;21.37;;
8889;SDS011;4481;43.406;24.454;2023-02-28T13:05:49;32.57;;;19.77;;
8889;SDS011;4481;43.406;24.454;2023-02-28T13:08:46;26.90;;;19.70;;
8889;SDS011;4481;43.406;24.454;2023-02-28T13:11:33;36.30;;;22.80;;
8889;SDS011;4481;43.406;24.454;2023-02-28T13:14:05;31.63;;;23.47;;
8889;SDS011;4481;43.406;24.454;2023-02-28T13:16:54;28.23;;;18.20;;
8889;SDS011;4481;43.406;24.454;2023-02-28T13:19:28;28.30;;;19.37;;
8889;SDS011;4481;43.406;24.454;2023-02-28T13:21:56;27.67;;;20.40;;
8889;SDS011;4481;43.406;24.454;2023-02-28T13:24:37;29.00;;;19.40;;
8889;SDS011;4481;43.406;24.454;2023-02-28T13:27:11;28.83;;;20.20;;
8889;SDS011;4481;43.406;24.454;2023-02-28T13:29:50;27.63;;;19.90;;
8889;SDS011;4481;43.406;24.454;2023-02-28T13:32:29;28.83;;;19.77;;
8889;SDS011;4481;43.406;24.454;2023-02-28T13:35:15;26.40;;;19.97;;
8889;SDS011;4481;43.406;24.454;2023-02-28T13:44:02;30.77;;;19.33;;
8889;SDS011;4481;43.406;24.454;2023-02-28T13:46:30;34.77;;;23.17;;
8889;SDS011;4481;43.406;24.454;2023-02-28T13:48:57;30.97;;;21.27;;
8889;SDS011;4481;43.406;24.454;2023-02-28T13:51:50;25.60;;;18.97;;
8889;SDS011;4481;43.406;24.454;2023-02-28T13:54:26;28.47;;;20.10;;
8889;SDS011;4481;43.406;24.454;2023-02-28T13:57:09;24.93;;;17.67;;
8889;SDS011;4481;43.406;24.454;2023-02-28T13:59:48;23.53;;;17.17;;
8889;SDS011;4481;43.406;24.454;2023-02-28T14:02:34;29.97;;;18.87;;
8889;SDS011;4481;43.406;24.454;2023-02-28T14:05:15;26.77;;;16.77;;
8889;SDS011;4481;43.406;24.454;2023-02-28T14:07:44;28.93;;;19.53;;
8889;SDS011;4481;43.406;24.454;2023-02-28T14:10:21;27.13;;;19.10;;
8889;SDS011;4481;43.406;24.454;2023-02-28T14:12:58;27.60;;;19.67;;
8889;SDS011;4481;43.406;24.454;2023-02-28T14:15:39;27.97;;;19.60;;
8889;SDS011;4481;43.406;24.454;2023-02-28T14:18:20;26.47;;;18.13;;
8889;SDS011;4481;43.406;24.454;2023-02-28T14:20:54;33.97;;;19.33;;
8889;SDS011;4481;43.406;24.454;2023-02-28T14:23:32;28.20;;;19.67;;
8889;SDS011;4481;43.406;24.454;2023-02-28T14:26:12;28.17;;;17.37;;
8889;SDS011;4481;43.406;24.454;2023-02-28T14:28:48;23.97;;;18.13;;
8889;SDS011;4481;43.406;24.454;2023-02-28T14:31:27;31.27;;;22.67;;
8889;SDS011;4481;43.406;24.454;2023-02-28T14:34:04;25.90;;;18.23;;
8889;SDS011;4481;43.406;24.454;2023-02-28T14:36:43;24.77;;;20.47;;
8889;SDS011;4481;43.406;24.454;2023-02-28T14:39:11;27.10;;;19.70;;
8889;SDS011;4481;43.406;24.454;2023-02-28T14:41:40;32.00;;;21.73;;
8889;SDS011;4481;43.406;24.454;2023-02-28T14:44:14;31.77;;;24.43;;
8889;SDS011;4481;43.406;24.454;2023-02-28T14:46:43;29.13;;;20.77;;
8889;SDS011;4481;43.406;24.454;2023-02-28T14:49:13;34.93;;;22.80;;
8889;SDS011;4481;43.406;24.454;2023-02-28T14:51:43;25.57;;;19.70;;
8889;SDS011;4481;43.406;24.454;2023-02-28T14:54:12;30.73;;;20.67;;
8889;SDS011;4481;43.406;24.454;2023-02-28T14:56:41;27.20;;;20.50;;
8889;SDS011;4481;43.406;24.454;2023-02-28T14:59:21;32.03;;;21.10;;
8889;SDS011;4481;43.406;24.454;2023-02-28T15:01:51;31.37;;;21.87;;
8889;SDS011;4481;43.406;24.454;2023-02-28T15:04:32;29.93;;;20.67;;
8889;SDS011;4481;43.406;24.454;2023-02-28T15:07:08;35.07;;;24.07;;
8889;SDS011;4481;43.406;24.454;2023-02-28T15:09:34;35.07;;;21.53;;
8889;SDS011;4481;43.406;24.454;2023-02-28T15:12:00;30.27;;;20.63;;
8889;SDS011;4481;43.406;24.454;2023-02-28T15:14:27;34.53;;;24.73;;